Time;durP1;ratioP1;P1;durP2;ratioP2;P2;SDS_P1;SDS_P2;PMS_P1;PMS_P2;Temp;Humidity;BMP_temperature;BMP_pressure;BME280_temperature;BME280_humidity;BME280_pressure;Samples;Min_cycle;Max_cycle;Signal;HPM_P1;HPM_P2
2024/01/26 00:01:31;;;;;;;23.17;3.20;;;;;;;7.30;100.00;102077.03;6303772;28;20576;-71
2024/01/26 00:04:33;;;;;;;16.30;2.95;;;;;;;7.30;100.00;102069.19;6302938;28;20452;-72
2024/01/26 00:07:35;;;;;;;9.50;2.47;;;;;;;7.26;100.00;102068.38;6303037;28;20052;-72
2024/01/26 00:10:37;;;;;;;17.30;4.30;;;;;;;7.26;100.00;102064.91;6303055;28;20052;-72
2024/01/26 00:13:38;;;;;;;22.77;3.42;;;;;;;7.24;100.00;102064.09;6302521;28;20460;-72
2024/01/26 00:16:40;;;;;;;29.35;3.38;;;;;;;7.31;100.00;102065.69;6302496;28;20048;-71
2024/01/26 00:19:41;;;;;;;20.58;4.32;;;;;;;7.30;100.00;102058.75;6303068;28;20048;-72
2024/01/26 00:22:44;;;;;;;18.20;3.75;;;;;;;7.29;100.00;102057.03;6302388;28;20041;-72
2024/01/26 00:25:45;;;;;;;9.23;3.42;;;;;;;7.33;100.00;102038.63;6303116;28;20064;-71
2024/01/26 00:28:46;;;;;;;20.35;3.75;;;;;;;7.35;100.00;102036.84;6318641;22;20044;-71
2024/01/26 00:31:48;;;;;;;25.77;4.40;;;;;;;7.34;100.00;102032.50;6327496;28;20051;-73
2024/01/26 00:34:49;;;;;;;22.20;3.65;;;;;;;7.43;100.00;102030.63;6327664;28;20055;-73
2024/01/26 00:37:52;;;;;;;20.95;5.75;;;;;;;7.45;100.00;102021.84;6327245;28;20455;-73
2024/01/26 00:40:53;;;;;;;19.00;3.15;;;;;;;7.42;100.00;102014.06;6327334;28;20363;-73
2024/01/26 00:43:55;;;;;;;17.52;4.07;;;;;;;7.50;100.00;102008.69;6327312;28;20051;-71
2024/01/26 00:46:56;;;;;;;22.40;3.65;;;;;;;7.54;100.00;102008.59;6325344;28;20055;-70
2024/01/26 00:49:58;;;;;;;13.63;4.00;;;;;;;7.50;100.00;102009.53;6321707;28;20055;-71
2024/01/26 00:53:00;;;;;;;23.25;4.63;;;;;;;7.54;100.00;102005.09;6326661;28;20127;-71
2024/01/26 00:56:02;;;;;;;18.80;3.58;;;;;;;7.47;100.00;101998.28;6326282;28;20462;-71
2024/01/26 00:59:03;;;;;;;27.00;4.40;;;;;;;7.49;100.00;102002.56;6326914;28;20048;-71
2024/01/26 01:02:04;;;;;;;19.15;4.28;;;;;;;7.56;100.00;101998.09;6314389;28;20039;-71
2024/01/26 01:05:06;;;;;;;19.95;5.57;;;;;;;7.57;100.00;101989.34;6313948;28;20055;-71
2024/01/26 01:08:09;;;;;;;13.05;4.65;;;;;;;7.53;100.00;101990.28;6301244;28;20189;-71
2024/01/26 01:11:10;;;;;;;11.65;4.47;;;;;;;7.52;100.00;101981.59;6301488;28;20049;-71
2024/01/26 01:14:12;;;;;;;15.20;3.85;;;;;;;7.71;100.00;101983.81;6301126;28;20040;-71
2024/01/26 01:17:14;;;;;;;13.93;5.20;;;;;;;7.80;100.00;101981.00;6301232;28;20048;-71
2024/01/26 01:20:16;;;;;;;22.23;5.00;;;;;;;7.80;100.00;101981.00;6301416;28;20057;-71
2024/01/26 01:23:19;;;;;;;23.52;5.32;;;;;;;7.80;100.00;101984.47;6301065;28;20052;-71
2024/01/26 01:26:20;;;;;;;25.00;5.20;;;;;;;7.79;100.00;101988.00;6300869;28;20059;-71
2024/01/26 01:29:21;;;;;;;19.83;5.43;;;;;;;7.79;100.00;101979.28;6300770;28;20060;-71
2024/01/26 01:32:22;;;;;;;25.38;5.05;;;;;;;7.76;100.00;101984.56;6301148;28;20045;-71
2024/01/26 01:35:24;;;;;;;19.20;5.10;;;;;;;7.81;100.00;101985.34;6300122;28;20348;-71
2024/01/26 01:38:26;;;;;;;22.08;6.00;;;;;;;7.88;100.00;101979.94;6315076;28;20043;-71
2024/01/26 01:41:28;;;;;;;32.60;5.93;;;;;;;7.87;100.00;101978.22;6310281;28;20052;-71
2024/01/26 01:44:30;;;;;;;17.58;4.85;;;;;;;7.96;100.00;101974.53;6300548;28;20392;-71
2024/01/26 01:47:31;;;;;;;17.95;4.90;;;;;;;7.99;100.00;101969.22;6300383;28;20049;-70
2024/01/26 01:50:32;;;;;;;19.73;5.57;;;;;;;8.02;100.00;101963.06;6300885;28;20045;-71
2024/01/26 01:53:37;;;;;;;23.25;5.93;;;;;;;7.78;100.00;101949.63;6300333;28;20049;-71
2024/01/26 01:56:39;;;;;;;18.83;5.65;;;;;;;7.75;100.00;101949.69;6299919;28;20060;-73
2024/01/26 01:59:41;;;;;;;22.90;5.95;;;;;;;7.75;100.00;101946.22;6300414;28;20173;-71
2024/01/26 02:02:45;;;;;;;25.33;6.45;;;;;;;7.75;100.00;101948.84;6300147;28;20365;-71
2024/01/26 02:05:48;;;;;;;19.58;5.95;;;;;;;7.75;100.00;101948.84;6300459;28;20135;-71
2024/01/26 02:08:51;;;;;;;31.77;6.55;;;;;;;7.72;100.00;101948.91;6299652;28;20050;-71
2024/01/26 02:11:53;;;;;;;18.20;5.93;;;;;;;7.78;100.00;101954.03;6300169;28;20056;-71
2024/01/26 02:14:54;;;;;;;31.30;5.60;;;;;;;7.80;100.00;101937.38;6299879;28;20047;-71
2024/01/26 02:17:56;;;;;;;20.88;5.80;;;;;;;7.69;100.00;101930.69;6299960;28;20060;-71
2024/01/26 02:20:57;;;;;;;29.83;6.18;;;;;;;7.68;100.00;101932.44;6300116;28;20364;-71
2024/01/26 02:23:59;;;;;;;22.90;7.78;;;;;;;7.61;100.00;101936.06;6300103;28;20049;-71
2024/01/26 02:27:01;;;;;;;22.73;5.47;;;;;;;7.57;100.00;101931.78;6299787;28;20052;-71
2024/01/26 02:30:02;;;;;;;15.82;5.75;;;;;;;7.57;100.00;101927.41;6299809;28;20044;-71
2024/01/26 02:33:04;;;;;;;23.40;6.60;;;;;;;7.56;100.00;101920.47;6299913;28;20040;-71
2024/01/26 02:36:07;;;;;;;14.98;5.22;;;;;;;7.64;100.00;101917.69;6299577;28;20056;-71
2024/01/26 02:39:10;;;;;;;21.30;5.80;;;;;;;7.66;100.00;101921.13;6300350;28;20064;-71
2024/01/26 02:42:11;;;;;;;18.80;5.47;;;;;;;7.67;100.00;101919.38;6299914;28;20139;-71
2024/01/26 02:45:13;;;;;;;19.00;5.20;;;;;;;7.68;100.00;101915.88;6299944;28;20075;-71
2024/01/26 02:48:14;;;;;;;21.83;6.18;;;;;;;7.65;100.00;101908.09;6308475;28;20047;-70
2024/01/26 02:51:16;;;;;;;23.17;6.57;;;;;;;7.62;100.00;101899.41;6316331;28;20044;-71
2024/01/26 02:54:18;;;;;;;24.55;5.65;;;;;;;7.62;100.00;101896.78;6304681;28;20429;-71
2024/01/26 02:57:19;;;;;;;16.55;5.15;;;;;;;7.59;100.00;101896.88;6321494;28;20055;-71
2024/01/26 03:00:21;;;;;;;25.17;5.15;;;;;;;7.61;100.00;101899.44;6325781;28;20044;-70
2024/01/26 03:03:22;;;;;;;20.20;4.65;;;;;;;7.71;100.00;101900.09;6306546;28;20326;-70
2024/01/26 03:06:24;;;;;;;16.95;5.75;;;;;;;7.69;100.00;101891.44;6304320;28;20064;-73
2024/01/26 03:09:27;;;;;;;18.77;5.70;;;;;;;7.70;100.00;101891.38;6304450;28;20056;-72
2024/01/26 03:12:29;;;;;;;22.58;5.28;;;;;;;7.78;100.00;101883.38;6314932;28;20048;-73
2024/01/26 03:15:30;;;;;;;17.25;6.10;;;;;;;7.85;100.00;101871.84;6329384;28;20047;-72
2024/01/26 03:18:31;;;;;;;26.95;6.82;;;;;;;7.80;100.00;101873.72;6329347;28;20455;-70
2024/01/26 03:21:33;;;;;;;23.77;7.25;;;;;;;7.83;100.00;101873.66;6328831;28;20051;-71
2024/01/26 03:24:35;;;;;;;20.20;6.13;;;;;;;7.86;100.00;101860.50;6329490;28;20130;-70
2024/01/26 03:27:36;;;;;;;16.13;6.53;;;;;;;7.86;100.00;101863.13;6328677;28;20060;-70
2024/01/26 03:30:40;;;;;;;14.38;6.30;;;;;;;7.89;100.00;101848.16;6329019;28;20075;-70
2024/01/26 03:33:41;;;;;;;28.45;7.10;;;;;;;7.87;100.00;101847.38;6328980;28;20051;-70
2024/01/26 03:36:42;;;;;;;22.35;7.43;;;;;;;7.89;100.00;101845.56;6319520;28;20045;-71
2024/01/26 03:39:45;;;;;;;28.55;6.63;;;;;;;7.87;100.00;101849.13;6303703;28;20441;-70
2024/01/26 03:42:46;;;;;;;21.75;7.75;;;;;;;7.91;100.00;101845.53;6303244;28;20075;-70
2024/01/26 03:45:47;;;;;;;21.52;6.47;;;;;;;8.08;100.00;101842.47;6304013;28;20056;-72
2024/01/26 03:48:49;;;;;;;26.55;7.32;;;;;;;7.99;100.00;101843.56;6303098;28;20049;-71
2024/01/26 03:51:50;;;;;;;21.02;6.93;;;;;;;7.96;100.00;101838.44;6303772;28;20056;-70
2024/01/26 03:54:54;;;;;;;21.42;6.30;;;;;;;8.01;100.00;101830.47;6303098;28;20051;-70
2024/01/26 03:57:55;;;;;;;15.23;7.45;;;;;;;8.03;100.00;101829.50;6302588;28;20072;-70
2024/01/26 04:00:57;;;;;;;24.30;7.47;;;;;;;8.10;100.00;101822.38;6303327;28;20455;-71
2024/01/26 04:03:58;;;;;;;19.90;7.90;;;;;;;8.19;100.00;101816.91;6303311;28;20056;-70
2024/01/26 04:06:59;;;;;;;21.48;8.13;;;;;;;8.19;100.00;101813.41;6302788;28;20053;-71
2024/01/26 04:10:02;;;;;;;22.95;7.38;;;;;;;8.15;100.00;101812.63;6303059;28;20103;-71
2024/01/26 04:13:04;;;;;;;16.30;6.63;;;;;;;8.15;100.00;101812.63;6302952;28;20053;-70
2024/01/26 04:16:07;;;;;;;18.77;7.13;;;;;;;8.20;100.00;101807.28;6302548;28;20055;-70
2024/01/26 04:19:08;;;;;;;19.25;6.88;;;;;;;8.17;100.00;101808.19;6303043;28;20463;-70
2024/01/26 04:22:09;;;;;;;17.77;7.57;;;;;;;8.21;100.00;101799.38;6302817;28;20052;-70
2024/01/26 04:25:12;;;;;;;23.55;8.77;;;;;;;8.34;100.00;101798.16;6302939;28;20051;-70
2024/01/26 04:28:13;;;;;;;18.23;7.63;;;;;;;8.19;100.00;101785.47;6302389;28;20059;-70
2024/01/26 04:31:15;;;;;;;22.33;8.85;;;;;;;8.29;100.00;101780.84;6325209;28;20043;-70
2024/01/26 04:34:16;;;;;;;23.88;8.70;;;;;;;8.36;100.00;101778.06;6326972;28;20131;-70
2024/01/26 04:37:17;;;;;;;23.98;9.23;;;;;;;8.47;100.00;101775.13;6326449;28;20044;-70
2024/01/26 04:40:20;;;;;;;20.40;8.82;;;;;;;8.52;100.00;101780.25;6326643;28;20059;-70
2024/01/26 04:43:21;;;;;;;20.83;8.63;;;;;;;8.52;100.00;101760.13;6327098;28;20051;-70
2024/01/26 04:46:23;;;;;;;20.20;9.27;;;;;;;8.51;100.00;101754.94;6327092;28;20044;-70
2024/01/26 04:49:24;;;;;;;19.92;7.50;;;;;;;8.57;100.00;101750.38;6326078;28;20039;-71
2024/01/26 04:52:26;;;;;;;24.92;9.05;;;;;;;8.54;100.00;101733.88;6312392;28;20060;-70
2024/01/26 04:55:29;;;;;;;21.60;8.40;;;;;;;8.63;100.00;101737.13;6319114;28;20093;-70
2024/01/26 04:58:30;;;;;;;27.23;9.20;;;;;;;8.52;100.00;101727.84;6320979;28;20421;-70
2024/01/26 05:01:31;;;;;;;20.63;8.05;;;;;;;8.48;100.00;101728.84;6319817;28;20047;-70
2024/01/26 05:04:33;;;;;;;27.00;9.27;;;;;;;8.61;100.00;101731.06;6326701;28;20036;-70
2024/01/26 05:07:34;;;;;;;27.85;9.43;;;;;;;8.63;100.00;101726.63;6322731;28;20439;-70
2024/01/26 05:10:37;;;;;;;23.77;10.43;;;;;;;8.63;100.00;101718.78;6324700;28;20044;-71
2024/01/26 05:13:38;;;;;;;25.77;9.60;;;;;;;8.57;100.00;101703.22;6325234;28;20036;-70
2024/01/26 05:16:39;;;;;;;26.65;9.93;;;;;;;8.51;100.00;101690.31;6325468;28;20432;-72
2024/01/26 05:19:41;;;;;;;24.60;9.77;;;;;;;8.58;100.00;101690.97;6326065;28;20044;-70
2024/01/26 05:22:42;;;;;;;21.92;9.23;;;;;;;8.55;100.00;101684.09;6325686;28;20040;-71
2024/01/26 05:25:45;;;;;;;24.25;9.27;;;;;;;8.66;100.00;101685.50;6326126;28;20044;-70
2024/01/26 05:28:46;;;;;;;22.92;8.77;;;;;;;8.74;100.00;101679.13;6322903;28;20068;-71
2024/01/26 05:31:48;;;;;;;23.42;9.18;;;;;;;8.61;100.00;101665.53;6326067;28;20051;-70
2024/01/26 05:34:49;;;;;;;28.15;10.18;;;;;;;8.65;100.00;101645.34;6325340;28;20056;-70
2024/01/26 05:37:50;;;;;;;25.10;9.30;;;;;;;8.73;100.00;101637.25;6325367;28;20040;-70
2024/01/26 05:40:53;;;;;;;30.70;11.48;;;;;;;8.75;100.00;101624.97;6325746;28;20333;-72
2024/01/26 05:43:54;;;;;;;30.00;10.27;;;;;;;8.71;100.00;101621.56;6325483;28;20047;-72
2024/01/26 05:46:56;;;;;;;29.33;10.30;;;;;;;8.69;100.00;101604.19;6324067;28;20048;-72
2024/01/26 05:49:57;;;;;;;27.50;10.38;;;;;;;8.74;100.00;101600.53;6325319;28;20068;-70
2024/01/26 05:52:58;;;;;;;24.83;9.93;;;;;;;8.74;100.00;101592.66;6325554;28;20052;-70
2024/01/26 05:56:01;;;;;;;26.00;10.63;;;;;;;8.72;100.00;101599.72;6325147;28;20453;-70
2024/01/26 05:59:02;;;;;;;25.95;9.85;;;;;;;8.69;100.00;101591.09;6325790;28;20456;-70
2024/01/26 06:02:04;;;;;;;34.10;11.02;;;;;;;8.75;100.00;101596.13;6325686;28;20052;-70
2024/01/26 06:05:06;;;;;;;26.00;10.07;;;;;;;8.75;100.00;101598.75;6325644;28;20040;-72
2024/01/26 06:08:07;;;;;;;27.90;10.57;;;;;;;8.73;100.00;101611.06;6325091;28;20047;-70
2024/01/26 06:11:10;;;;;;;35.92;13.02;;;;;;;8.79;100.00;101614.34;6325417;28;20325;-70
2024/01/26 06:14:11;;;;;;;30.20;11.90;;;;;;;8.82;100.00;101606.38;6325223;28;20348;-72
2024/01/26 06:17:12;;;;;;;36.05;12.02;;;;;;;8.83;100.00;101608.09;6324942;28;20059;-70
2024/01/26 06:20:14;;;;;;;35.75;13.43;;;;;;;8.84;100.00;101580.09;6325577;28;20060;-72
2024/01/26 06:23:15;;;;;;;29.40;12.32;;;;;;;8.90;100.00;101574.66;6324876;28;20048;-70
2024/01/26 06:26:20;;;;;;;27.77;12.43;;;;;;;8.90;100.00;101590.38;6325057;28;20056;-70
2024/01/26 06:29:22;;;;;;;32.28;13.15;;;;;;;8.97;100.00;101588.44;6325066;28;20048;-71
2024/01/26 06:32:23;;;;;;;30.25;12.73;;;;;;;9.09;100.00;101590.66;6325440;28;20048;-70
2024/01/26 06:35:24;;;;;;;34.75;12.68;;;;;;;9.22;100.00;101586.72;6324819;28;20062;-71
2024/01/26 06:38:26;;;;;;;28.00;12.63;;;;;;;9.22;100.00;101573.59;6324536;28;20341;-70
2024/01/26 06:41:28;;;;;;;33.55;13.23;;;;;;;9.29;100.00;101576.84;6325057;28;20051;-71
2024/01/26 06:44:30;;;;;;;33.95;13.30;;;;;;;9.35;100.00;101576.63;6325084;28;20051;-70
2024/01/26 06:47:31;;;;;;;33.13;12.95;;;;;;;9.29;100.00;101572.47;6324662;28;20048;-70
2024/01/26 06:50:33;;;;;;;33.08;13.70;;;;;;;9.35;100.00;101576.63;6323210;28;20044;-72
2024/01/26 06:53:34;;;;;;;32.42;13.65;;;;;;;9.32;100.00;101577.59;6300896;28;20081;-70
2024/01/26 06:56:37;;;;;;;28.02;12.45;;;;;;;9.34;100.00;101581.03;6307093;28;20322;-70
2024/01/26 06:59:39;;;;;;;31.58;13.50;;;;;;;9.29;100.00;101568.97;6308641;28;20060;-71
2024/01/26 07:02:41;;;;;;;30.48;12.88;;;;;;;9.29;100.00;101566.34;6303362;28;20351;-70
2024/01/26 07:05:42;;;;;;;34.42;13.63;;;;;;;9.32;100.00;101548.75;6316408;28;20123;-70
2024/01/26 07:08:44;;;;;;;30.65;12.93;;;;;;;9.39;100.00;101534.50;6324442;28;20063;-70
2024/01/26 07:11:46;;;;;;;29.27;13.48;;;;;;;9.35;100.00;101522.41;6324682;28;20364;-70
2024/01/26 07:14:47;;;;;;;29.75;13.00;;;;;;;9.39;100.00;101513.50;6319246;28;20051;-70
2024/01/26 07:17:49;;;;;;;30.17;12.95;;;;;;;9.46;100.00;101500.19;6323126;28;20048;-70
2024/01/26 07:20:51;;;;;;;32.13;12.10;;;;;;;9.54;100.00;101490.28;6310681;28;20051;-70
2024/01/26 07:23:52;;;;;;;30.30;11.85;;;;;;;9.54;100.00;101480.63;6320891;28;20380;-70
2024/01/26 07:26:54;;;;;;;29.58;11.70;;;;;;;9.53;100.00;101475.41;6323644;28;20055;-70
2024/01/26 07:29:56;;;;;;;26.02;10.73;;;;;;;9.52;100.00;101485.06;6323854;28;20055;-70
2024/01/26 07:32:57;;;;;;;24.48;10.90;;;;;;;9.52;100.00;101469.31;6324516;28;20055;-70
2024/01/26 07:35:58;;;;;;;23.02;9.85;;;;;;;9.53;100.00;101471.03;6328590;28;20057;-70
2024/01/26 07:39:00;;;;;;;20.30;9.98;;;;;;;9.53;100.00;101464.94;6329156;28;20055;-70
2024/01/26 07:42:03;;;;;;;20.30;9.52;;;;;;;9.55;100.00;101471.00;6328931;28;20056;-70
2024/01/26 07:45:05;;;;;;;16.67;8.77;;;;;;;9.51;100.00;101472.00;6327727;28;20046;-70
2024/01/26 07:48:08;;;;;;;16.25;8.15;;;;;;;9.60;100.00;101453.28;6325358;28;20041;-70
2024/01/26 07:51:10;;;;;;;15.75;7.75;;;;;;;9.68;100.00;101440.75;6324481;28;20040;-70
2024/01/26 07:54:11;;;;;;;14.57;6.68;;;;;;;9.64;100.00;101450.50;6320635;28;20052;-69
2024/01/26 07:57:14;;;;;;;12.93;6.80;;;;;;;9.81;100.00;101439.34;6319938;28;20048;-70
2024/01/26 08:00:17;;;;;;;11.95;6.70;;;;;;;9.80;100.00;101434.16;6321916;28;20048;-71
2024/01/26 08:03:18;;;;;;;9.70;5.55;;;;;;;9.79;100.00;101422.78;6324891;28;20534;-72
2024/01/26 08:06:20;;;;;;;13.57;6.72;;;;;;;9.85;100.00;101422.53;6322016;28;20342;-71
2024/01/26 08:09:21;;;;;;;13.68;6.28;;;;;;;9.90;100.00;101407.50;6326260;28;20044;-71
2024/01/26 08:12:24;;;;;;;10.05;5.68;;;;;;;9.95;100.00;101411.69;6321901;28;20356;-72
2024/01/26 08:15:26;;;;;;;10.20;4.97;;;;;;;9.93;100.00;101409.13;6319543;28;20097;-71
2024/01/26 08:18:27;;;;;;;13.20;6.00;;;;;;;9.91;100.00;101405.72;6327073;28;20458;-70
2024/01/26 08:21:28;;;;;;;8.00;5.00;;;;;;;9.87;100.00;101404.97;6318005;28;20055;-72
2024/01/26 08:24:30;;;;;;;11.18;6.03;;;;;;;9.88;100.00;101400.56;6327680;28;20040;-73
2024/01/26 08:27:32;;;;;;;12.00;5.00;;;;;;;9.83;100.00;101387.63;6326973;28;20134;-70
2024/01/26 08:30:35;;;;;;;16.38;5.72;;;;;;;9.78;100.00;101373.84;6303610;28;20465;-72
2024/01/26 08:33:36;;;;;;;13.20;5.50;;;;;;;9.81;100.00;101372.84;6327790;28;20043;-71
2024/01/26 08:36:38;;;;;;;12.73;5.25;;;;;;;9.77;100.00;101369.53;6323864;28;20080;-71
2024/01/26 08:39:39;;;;;;;10.50;5.70;;;;;;;9.78;100.00;101358.09;6327523;28;20052;-72
2024/01/26 08:42:45;;;;;;;10.60;5.90;;;;;;;9.81;100.00;101343.97;6315404;28;20348;-71
2024/01/26 08:45:46;;;;;;;9.73;5.55;;;;;;;9.73;100.00;101351.31;6324866;28;20047;-71
2024/01/26 08:48:48;;;;;;;9.82;5.25;;;;;;;9.74;100.00;101334.66;6301650;28;20059;-74
2024/01/26 08:51:51;;;;;;;7.55;4.85;;;;;;;9.75;100.00;101331.97;6302398;28;20281;-70
2024/01/26 08:54:52;;;;;;;16.50;5.68;;;;;;;9.73;100.00;101332.97;6301773;28;20433;-73
2024/01/26 08:57:55;;;;;;;10.57;5.30;;;;;;;9.69;100.00;101324.34;6301724;28;20044;-72
2024/01/26 09:00:56;;;;;;;10.02;5.18;;;;;;;9.74;100.00;101311.88;6307816;28;20048;-73
2024/01/26 09:03:57;;;;;;;8.73;5.03;;;;;;;9.75;100.00;101318.00;6324002;28;20051;-73
2024/01/26 09:06:59;;;;;;;11.63;5.70;;;;;;;9.72;100.00;101313.72;6324502;28;20368;-75
2024/01/26 09:10:00;;;;;;;10.63;5.43;;;;;;;9.73;100.00;101306.72;6319050;28;20044;-75
2024/01/26 09:13:03;;;;;;;16.25;6.10;;;;;;;9.75;100.00;101310.13;6321849;28;20051;-75
2024/01/26 09:16:05;;;;;;;12.70;5.90;;;;;;;9.75;100.00;101304.88;6320208;28;20444;-72
2024/01/26 09:19:08;;;;;;;10.50;5.50;;;;;;;9.78;100.00;101308.22;6324675;28;20040;-76
2024/01/26 09:22:09;;;;;;;10.35;5.55;;;;;;;9.84;100.00;101302.72;6326325;28;20103;-75
2024/01/26 09:25:11;;;;;;;11.85;5.82;;;;;;;9.86;100.00;101305.28;6306103;28;20059;-73
2024/01/26 09:28:13;;;;;;;11.05;5.97;;;;;;;9.82;100.00;101299.31;6313143;28;20070;-73
2024/01/26 09:31:15;;;;;;;14.93;6.10;;;;;;;9.83;100.00;101298.38;6305010;28;20045;-73
2024/01/26 09:34:16;;;;;;;12.15;6.07;;;;;;;9.88;100.00;101288.53;6308975;28;20047;-73
2024/01/26 09:37:17;;;;;;;15.77;7.03;;;;;;;9.91;100.00;101287.56;6320206;28;20050;-74
2024/01/26 09:40:20;;;;;;;11.75;6.22;;;;;;;9.91;100.00;101282.31;6312847;28;20059;-75
2024/01/26 09:43:23;;;;;;;18.52;6.40;;;;;;;9.93;100.00;101298.84;6324027;28;20044;-77
2024/01/26 09:46:27;;;;;;;14.27;6.22;;;;;;;9.89;100.00;101294.66;6324844;28;20046;-76
2024/01/26 09:49:29;;;;;;;12.35;5.95;;;;;;;9.87;100.00;101286.84;6324279;28;20044;-75
2024/01/26 09:52:31;;;;;;;10.60;5.13;;;;;;;9.95;100.00;101283.03;6325853;28;20170;-74
2024/01/26 09:55:33;;;;;;;14.55;6.35;;;;;;;9.91;100.00;101285.81;6325013;28;20047;-75
2024/01/26 09:58:36;;;;;;;14.05;5.90;;;;;;;9.97;100.00;101282.06;6325321;28;20051;-75
2024/01/26 10:01:39;;;;;;;10.38;5.53;;;;;;;9.95;100.00;101286.53;6325766;28;20048;-76
2024/01/26 10:04:40;;;;;;;10.32;5.07;;;;;;;9.82;100.00;101278.31;6325363;28;20375;-76
2024/01/26 10:07:42;;;;;;;10.55;4.90;;;;;;;9.84;100.00;101258.09;6328197;28;20047;-75
2024/01/26 10:10:43;;;;;;;9.70;5.03;;;;;;;9.85;100.00;101258.94;6327907;28;20059;-77
2024/01/26 10:13:46;;;;;;;10.50;5.13;;;;;;;9.87;100.00;101265.00;6325239;28;20048;-78
2024/01/26 10:16:54;;;;;;;8.57;4.63;;;;;;;9.89;100.00;101256.13;6320856;28;20048;-78
2024/01/26 10:20:07;;;;;;;8.60;4.97;;;;;;;9.90;100.00;101247.34;6316809;28;20360;-79
2024/01/26 10:23:09;;;;;;;9.68;4.30;;;;;;;9.94;100.00;101258.53;6300097;28;20052;-74
2024/01/26 10:26:10;;;;;;;8.63;4.28;;;;;;;9.91;100.00;101263.94;6299787;28;20040;-75
2024/01/26 10:29:13;;;;;;;8.30;4.35;;;;;;;9.90;100.00;101263.09;6311846;28;20097;-75
2024/01/26 10:32:15;;;;;;;11.90;4.30;;;;;;;10.02;100.00;101250.34;6304570;28;20049;-75
2024/01/26 10:35:18;;;;;;;7.13;3.30;;;;;;;10.00;100.00;101234.69;6299727;28;20127;-75
2024/01/26 10:38:20;;;;;;;10.52;3.83;;;;;;;10.03;100.00;101242.41;6299750;28;20159;-74
2024/01/26 10:41:23;;;;;;;5.18;3.47;;;;;;;10.04;100.00;101236.25;6300160;28;20357;-75
2024/01/26 10:44:26;;;;;;;7.65;3.83;;;;;;;10.23;100.00;101236.28;6299925;28;20056;-73
2024/01/26 10:47:28;;;;;;;6.05;3.65;;;;;;;10.35;100.00;101214.75;6324048;28;20044;-75
2024/01/26 10:50:30;;;;;;;5.13;3.25;;;;;;;10.40;100.00;101210.16;6325204;28;20087;-73
2024/01/26 10:53:33;;;;;;;5.20;3.13;;;;;;;10.38;100.00;101208.50;6324502;28;20322;-74
2024/01/26 10:56:34;;;;;;;5.00;2.97;;;;;;;10.32;100.00;101199.16;6324700;28;20051;-72
2024/01/26 10:59:40;;;;;;;5.45;2.80;;;;;;;10.33;100.00;101185.09;6324845;28;20048;-76
2024/01/26 11:02:41;;;;;;;4.22;2.47;;;;;;;10.36;100.00;101186.72;6319580;28;20459;-76
2024/01/26 11:05:48;;;;;;;2.90;2.20;;;;;;;10.39;100.00;101197.06;6324863;28;20052;-76
2024/01/26 11:08:50;;;;;;;3.30;2.33;;;;;;;10.43;100.00;101179.41;6313724;28;20445;-75
2024/01/26 11:11:52;;;;;;;4.65;3.00;;;;;;;10.46;100.00;101188.00;6304504;28;20178;-78
2024/01/26 11:15:09;;;;;;;4.57;2.42;;;;;;;10.50;100.00;101178.22;6316766;28;20048;-75
2024/01/26 11:18:22;;;;;;;3.40;2.35;;;;;;;10.58;100.00;101189.19;6325839;28;20041;-75
2024/01/26 11:21:23;;;;;;;5.38;2.30;;;;;;;10.59;100.00;101180.41;6322315;28;20369;-77
2024/01/26 11:24:25;;;;;;;2.75;2.15;;;;;;;10.61;100.00;101179.41;6307199;28;20049;-75
2024/01/26 11:27:27;;;;;;;3.20;2.05;;;;;;;10.63;100.00;101185.47;6303493;28;20049;-75
2024/01/26 11:30:30;;;;;;;3.17;2.53;;;;;;;10.55;100.00;101173.59;6304200;28;20624;-76
2024/01/26 11:33:37;;;;;;;4.85;3.30;;;;;;;10.61;100.00;101183.81;6303916;28;20425;-75
2024/01/26 11:36:38;;;;;;;3.45;2.70;;;;;;;10.59;100.00;101191.78;6324977;28;20068;-75
2024/01/26 11:39:40;;;;;;;3.40;2.50;;;;;;;10.49;100.00;101266.72;6304647;28;20048;-73
2024/01/26 11:42:41;;;;;;;4.40;1.77;;;;;;;10.52;100.00;101284.94;6303627;28;20049;-74
2024/01/26 11:45:45;;;;;;;1.85;0.80;;;;;;;10.11;100.00;101362.88;6313749;28;20040;-73
2024/01/26 11:48:47;;;;;;;1.55;0.60;;;;;;;9.67;100.00;101286.78;6328448;28;20047;-75
2024/01/26 11:51:48;;;;;;;0.35;0.25;;;;;;;9.52;100.00;101296.16;6328851;28;20075;-75
2024/01/26 11:54:50;;;;;;;1.10;0.68;;;;;;;9.48;100.00;101315.56;6328366;28;20063;-75
2024/01/26 11:57:52;;;;;;;0.43;0.40;;;;;;;9.57;100.00;101314.34;6328027;28;20055;-76
2024/01/26 12:00:55;;;;;;;0.30;0.30;;;;;;;9.68;100.00;101320.03;6310737;28;20326;-76
2024/01/26 12:03:56;;;;;;;0.38;0.30;;;;;;;9.61;100.00;101336.91;6303204;28;20051;-76
2024/01/26 12:06:58;;;;;;;0.90;0.30;;;;;;;9.60;100.00;101324.72;6302824;28;20049;-76
2024/01/26 12:09:59;;;;;;;1.02;0.20;;;;;;;9.47;100.00;101342.72;6325563;28;20051;-75
2024/01/26 12:13:01;;;;;;;0.77;0.38;;;;;;;9.40;100.00;101342.09;6327919;28;20059;-73
2024/01/26 12:16:04;;;;;;;1.17;0.35;;;;;;;9.30;100.00;101350.38;6327927;28;20051;-74
2024/01/26 12:19:07;;;;;;;0.35;0.20;;;;;;;9.24;100.00;101359.34;6327387;28;20055;-74
2024/01/26 12:22:10;;;;;;;0.40;0.40;;;;;;;9.22;100.00;101376.03;6312788;28;20047;-74
2024/01/26 12:25:15;;;;;;;2.90;0.30;;;;;;;9.18;100.00;101388.41;6322542;28;20044;-74
2024/01/26 12:28:16;;;;;;;1.33;0.50;;;;;;;9.28;100.00;101400.28;6326624;28;20044;-75
2024/01/26 12:31:19;;;;;;;3.63;0.40;;;;;;;9.30;100.00;101415.94;6360745;22;20059;-74
2024/01/26 12:34:20;;;;;;;0.40;0.30;;;;;;;9.32;100.00;101412.38;6344354;28;20048;-76
2024/01/26 12:37:22;;;;;;;5.30;0.38;;;;;;;9.36;100.00;101413.09;6348601;28;20039;-74
2024/01/26 12:40:23;;;;;;;1.08;0.30;;;;;;;9.39;100.00;101415.59;6344485;28;20137;-74
2024/01/26 12:43:25;;;;;;;3.70;0.30;;;;;;;9.34;100.00;101446.38;6352817;28;20048;-76
2024/01/26 12:46:28;;;;;;;1.85;0.30;;;;;;;9.19;100.00;101450.44;6352603;28;20461;-75
2024/01/26 12:49:31;;;;;;;1.40;0.35;;;;;;;9.32;100.00;101463.97;6344180;28;20441;-76
2024/01/26 12:52:33;;;;;;;5.68;0.63;;;;;;;9.25;100.00;101463.31;6352638;28;20181;-76
2024/01/26 12:55:34;;;;;;;1.98;0.52;;;;;;;9.30;100.00;101484.13;6352295;28;20415;-75
2024/01/26 12:58:35;;;;;;;5.35;0.93;;;;;;;9.06;100.00;101486.72;6351788;28;20055;-75
2024/01/26 13:01:39;;;;;;;3.85;0.60;;;;;;;8.96;100.00;101506.31;6352432;28;20054;-76
2024/01/26 13:04:42;;;;;;;2.08;0.70;;;;;;;8.87;100.00;101502.25;6352018;28;20043;-75
2024/01/26 13:07:43;;;;;;;6.93;1.27;;;;;;;8.71;100.00;101510.66;6348261;28;20732;-75
2024/01/26 13:10:45;;;;;;;4.63;1.10;;;;;;;8.65;100.00;101506.50;6335041;28;20052;-75
2024/01/26 13:13:46;;;;;;;5.60;0.60;;;;;;;8.50;100.00;101517.47;6326484;28;20097;-75
2024/01/26 13:16:49;;;;;;;2.20;0.73;;;;;;;8.51;100.00;101506.94;6326200;28;20051;-74
2024/01/26 13:19:50;;;;;;;4.72;1.05;;;;;;;8.50;100.00;101527.97;6336721;28;20357;-74
2024/01/26 13:22:52;;;;;;;7.07;1.35;;;;;;;8.52;100.00;101528.75;6341318;28;20044;-76
2024/01/26 13:25:54;;;;;;;5.60;1.48;;;;;;;8.60;100.00;101542.47;6326664;28;20438;-75
2024/01/26 13:28:55;;;;;;;9.07;0.82;;;;;;;8.69;100.00;101533.44;6325781;28;20406;-75
2024/01/26 13:31:58;;;;;;;3.47;0.60;;;;;;;8.63;100.00;101538.00;6325680;28;20182;-73
2024/01/26 13:34:59;;;;;;;5.25;0.82;;;;;;;8.69;100.00;101539.53;6326210;28;20047;-73
2024/01/26 13:38:01;;;;;;;11.48;1.35;;;;;;;8.74;100.00;101557.75;6331330;28;20047;-73
2024/01/26 13:41:02;;;;;;;6.82;0.82;;;;;;;8.76;100.00;101562.00;6350847;28;20600;-74
2024/01/26 13:44:04;;;;;;;11.63;1.00;;;;;;;8.73;100.00;101577.84;6351102;28;20055;-74
2024/01/26 13:47:06;;;;;;;6.22;0.90;;;;;;;8.81;100.00;101575.84;6350921;28;20050;-74
2024/01/26 13:50:08;;;;;;;4.38;0.80;;;;;;;8.80;100.00;101583.72;6351143;28;20052;-74
2024/01/26 13:53:10;;;;;;;5.53;0.70;;;;;;;8.66;100.00;101589.41;6350938;28;20181;-74
2024/01/26 13:56:11;;;;;;;4.22;0.63;;;;;;;8.56;100.00;101609.81;6350479;28;20423;-74